createdAt,value
2018-06-04T00:00:34.465Z,18.70
2018-06-04T00:03:09.343Z,18.69
2018-06-04T00:05:44.653Z,18.66
2018-06-04T00:08:19.448Z,18.63
2018-06-04T00:10:54.462Z,18.59
2018-06-04T00:13:29.514Z,18.53
2018-06-04T00:16:04.202Z,18.47
2018-06-04T00:18:38.462Z,18.45
2018-06-04T00:21:13.314Z,18.42
2018-06-04T00:23:48.226Z,18.38
2018-06-04T00:26:23.410Z,18.33
2018-06-04T00:28:58.158Z,18.28
2018-06-04T00:31:33.325Z,18.22
2018-06-04T00:34:08.551Z,18.18
2018-06-04T00:36:43.951Z,18.14
2018-06-04T00:39:18.645Z,18.11
2018-06-04T00:41:54.429Z,18.08
2018-06-04T00:44:29.892Z,18.08
2018-06-04T00:47:05.046Z,18.09
2018-06-04T00:49:39.310Z,18.09
2018-06-04T00:52:14.353Z,18.11
2018-06-04T00:54:49.326Z,18.07
2018-06-04T00:57:23.760Z,18.04
2018-06-04T00:59:58.753Z,18.01
2018-06-04T01:02:33.578Z,18.03
2018-06-04T01:05:08.678Z,18.03
2018-06-04T01:07:43.890Z,18.02
2018-06-04T01:10:18.662Z,18.02
2018-06-04T01:12:54.036Z,18.01
2018-06-04T01:15:29.175Z,18.00
2018-06-04T01:18:03.694Z,17.97
2018-06-04T01:20:38.574Z,17.94
2018-06-04T01:23:14.178Z,17.90
2018-06-04T01:25:49.012Z,17.86
2018-06-04T01:28:23.937Z,17.83
2018-06-04T01:30:58.939Z,17.82
2018-06-04T01:33:33.585Z,17.80
2018-06-04T01:36:08.655Z,17.76
2018-06-04T01:38:43.781Z,17.73
2018-06-04T01:41:18.772Z,17.72
2018-06-04T01:43:53.854Z,17.72
2018-06-04T01:46:29.286Z,17.72
2018-06-04T01:49:04.466Z,17.71
2018-06-04T01:51:39.858Z,17.68
2018-06-04T01:54:15.007Z,17.65
2018-06-04T01:56:50.241Z,17.61
2018-06-04T01:59:24.911Z,17.54
2018-06-04T02:01:59.497Z,17.46
2018-06-04T02:04:33.874Z,17.44
2018-06-04T02:07:08.735Z,17.41
2018-06-04T02:09:43.901Z,17.40
2018-06-04T02:12:18.758Z,17.38
2018-06-04T02:14:53.828Z,17.37
2018-06-04T02:17:28.709Z,17.35
2018-06-04T02:20:03.705Z,17.28
2018-06-04T02:22:38.567Z,17.23
2018-06-04T02:25:13.398Z,17.20
2018-06-04T02:27:48.138Z,17.15
2018-06-04T02:30:22.986Z,17.12
2018-06-04T02:32:57.936Z,17.05
2018-06-04T02:35:32.815Z,17.01
2018-06-04T02:38:08.097Z,16.99
2018-06-04T02:40:42.999Z,16.94
2018-06-04T02:43:17.771Z,16.91
2018-06-04T02:45:52.829Z,16.90
2018-06-04T02:48:27.379Z,16.88
2018-06-04T02:51:02.811Z,16.88
2018-06-04T02:53:37.946Z,16.88
2018-06-04T02:56:13.415Z,16.85
2018-06-04T02:58:48.920Z,16.84
2018-06-04T03:01:23.974Z,16.82
2018-06-04T03:03:59.316Z,16.80
2018-06-04T03:06:33.911Z,16.78
2018-06-04T03:09:09.341Z,16.74
2018-06-04T03:11:44.588Z,16.69
2018-06-04T03:14:19.313Z,16.61
2018-06-04T03:16:54.512Z,16.56
2018-06-04T03:19:29.922Z,16.54
2018-06-04T03:22:05.068Z,16.52
2018-06-04T03:24:40.114Z,16.54
2018-06-04T03:27:14.790Z,16.54
2018-06-04T03:29:49.298Z,16.56
2018-06-04T03:32:24.368Z,16.61
2018-06-04T03:34:59.718Z,16.62
2018-06-04T03:37:34.267Z,16.63
2018-06-04T03:40:09.698Z,16.65
2018-06-04T03:42:44.178Z,16.68
2018-06-04T03:45:18.990Z,16.70
2018-06-04T03:47:54.014Z,16.72
2018-06-04T03:50:28.992Z,16.72
2018-06-04T03:53:03.782Z,16.71
2018-06-04T03:55:38.849Z,16.61
2018-06-04T03:58:13.601Z,16.55
2018-06-04T04:00:48.463Z,16.48
2018-06-04T04:03:23.711Z,16.45
2018-06-04T04:05:58.478Z,16.44
2018-06-04T04:08:33.588Z,16.48
2018-06-04T04:11:08.681Z,16.52
2018-06-04T04:13:43.819Z,16.56
2018-06-04T04:16:18.137Z,16.61
2018-06-04T04:18:53.513Z,16.55
2018-06-04T04:21:28.798Z,16.50
2018-06-04T04:24:03.542Z,16.50
2018-06-04T04:26:38.125Z,16.49
2018-06-04T04:29:12.822Z,16.51
2018-06-04T04:31:47.877Z,16.53
2018-06-04T04:34:23.268Z,16.55
2018-06-04T04:36:58.045Z,16.56
2018-06-04T04:39:32.741Z,16.57
2018-06-04T04:42:07.334Z,16.54
2018-06-04T04:44:42.601Z,16.50
2018-06-04T04:47:17.977Z,16.54
2018-06-04T04:49:52.915Z,16.66
2018-06-04T04:52:27.765Z,16.77
2018-06-04T04:55:02.958Z,16.95
2018-06-04T04:57:37.793Z,17.14
2018-06-04T05:00:12.852Z,17.31
2018-06-04T05:02:47.785Z,17.46
2018-06-04T05:05:22.513Z,17.58
2018-06-04T05:07:57.284Z,17.68
2018-06-04T05:10:31.864Z,17.76
2018-06-04T05:13:07.538Z,17.83
2018-06-04T05:15:42.640Z,17.88
2018-06-04T05:18:16.883Z,17.93
2018-06-04T05:20:51.894Z,17.94
2018-06-04T05:23:27.275Z,17.98
2018-06-04T05:26:02.252Z,17.98
2018-06-04T05:28:37.558Z,17.95
2018-06-04T05:31:12.922Z,17.94
2018-06-04T05:33:47.323Z,17.96
2018-06-04T05:36:22.326Z,17.95
2018-06-04T05:38:57.197Z,17.97
2018-06-04T05:41:32.169Z,17.98
2018-06-04T05:44:07.183Z,17.98
2018-06-04T05:46:42.211Z,17.96
2018-06-04T05:49:17.031Z,17.95
2018-06-04T05:51:51.742Z,17.98
2018-06-04T05:54:26.994Z,18.02
2018-06-04T05:57:01.495Z,18.04
2018-06-04T05:59:36.602Z,17.99
2018-06-04T06:02:11.881Z,18.00
2018-06-04T06:04:46.614Z,18.04
2018-06-04T06:07:21.342Z,18.12
2018-06-04T06:09:56.250Z,18.21
2018-06-04T06:12:30.865Z,18.30
2018-06-04T06:15:05.712Z,18.38
2018-06-04T06:17:40.893Z,18.41
2018-06-04T06:20:15.669Z,18.41
2018-06-04T06:22:50.069Z,18.47
2018-06-04T06:25:24.841Z,18.57
2018-06-04T06:28:00.102Z,18.68
2018-06-04T06:30:35.554Z,18.76
2018-06-04T06:33:10.660Z,18.79
2018-06-04T06:35:46.031Z,18.82
2018-06-04T06:38:21.275Z,18.86
2018-06-04T06:40:56.642Z,18.88
2018-06-04T06:43:31.731Z,18.76
2018-06-04T06:46:06.838Z,18.67
2018-06-04T06:48:41.710Z,18.72
2018-06-04T06:51:16.993Z,18.84
2018-06-04T06:53:51.870Z,18.94
2018-06-04T06:56:26.601Z,18.99
2018-06-04T06:59:02.153Z,19.01
2018-06-04T07:01:37.414Z,19.05
2018-06-04T07:04:12.538Z,19.10
2018-06-04T07:06:47.117Z,19.14
2018-06-04T07:09:22.476Z,19.19
2018-06-04T07:11:56.891Z,19.24
2018-06-04T07:14:31.793Z,19.23
2018-06-04T07:17:06.914Z,19.15
2018-06-04T07:19:42.157Z,19.15
2018-06-04T07:22:17.039Z,19.10
2018-06-04T07:24:51.991Z,19.05
2018-06-04T07:27:26.623Z,18.93
2018-06-04T07:30:00.937Z,18.86
2018-06-04T07:32:35.655Z,18.89
2018-06-04T07:35:11.111Z,19.00
2018-06-04T07:37:45.633Z,19.11
2018-06-04T07:40:20.887Z,19.22
2018-06-04T07:42:56.116Z,19.33
2018-06-04T07:45:30.939Z,19.41
2018-06-04T07:48:05.709Z,19.55
2018-06-04T07:50:41.010Z,19.61
2018-06-04T07:53:15.846Z,19.68
2018-06-04T07:55:50.471Z,19.75
2018-06-04T07:58:26.388Z,19.74
2018-06-04T08:01:00.865Z,19.71
2018-06-04T08:03:35.917Z,19.66
2018-06-04T08:06:10.570Z,19.67
2018-06-04T08:08:45.834Z,19.65
2018-06-04T08:11:20.749Z,19.67
2018-06-04T08:13:55.557Z,19.67
2018-06-04T08:16:30.789Z,19.71
2018-06-04T08:19:05.980Z,19.78
2018-06-04T08:21:41.130Z,19.87
2018-06-04T08:24:15.770Z,19.95
2018-06-04T08:26:50.745Z,20.03
2018-06-04T08:29:25.255Z,20.08
2018-06-04T08:31:59.493Z,20.16
2018-06-04T08:34:34.493Z,20.22
2018-06-04T08:37:09.019Z,20.25
2018-06-04T08:39:44.215Z,20.31
2018-06-04T08:42:19.003Z,20.38
2018-06-04T08:44:53.767Z,20.48
2018-06-04T08:47:28.159Z,20.59
2018-06-04T08:50:02.442Z,20.73
2018-06-04T08:52:37.649Z,20.88
2018-06-04T08:55:12.338Z,21.03
2018-06-04T08:57:47.454Z,21.08
2018-06-04T09:00:22.647Z,21.17
2018-06-04T09:02:57.472Z,21.37
2018-06-04T09:05:32.664Z,21.59
2018-06-04T09:08:07.673Z,21.78
2018-06-04T09:10:42.482Z,21.89
2018-06-04T09:13:17.808Z,21.90
2018-06-04T09:15:52.785Z,21.91
2018-06-04T09:18:27.631Z,21.98
2018-06-04T09:21:02.366Z,22.04
2018-06-04T09:23:37.413Z,22.13
2018-06-04T09:26:12.747Z,22.25
2018-06-04T09:28:47.563Z,22.29
2018-06-04T09:31:22.573Z,22.40
2018-06-04T09:33:57.541Z,22.49
2018-06-04T09:36:32.702Z,22.63
2018-06-04T09:39:08.653Z,22.71
2018-06-04T09:41:43.640Z,22.75
2018-06-04T09:44:18.858Z,22.79
2018-06-04T09:46:54.534Z,22.87
2018-06-04T09:49:28.956Z,22.98
2018-06-04T09:52:05.441Z,23.09
2018-06-04T09:54:39.879Z,23.06
2018-06-04T09:57:14.916Z,23.03
2018-06-04T09:59:50.029Z,22.92
2018-06-04T10:02:24.808Z,22.97
2018-06-04T10:04:59.591Z,23.19
2018-06-04T10:07:34.918Z,23.42
2018-06-04T10:10:18.802Z,23.45
2018-06-04T10:12:53.230Z,23.30
2018-06-04T10:15:27.902Z,23.24
2018-06-04T10:18:03.273Z,23.22
2018-06-04T10:20:38.234Z,23.16
2018-06-04T10:23:13.181Z,23.07
2018-06-04T10:25:47.607Z,22.97
2018-06-04T10:28:22.890Z,22.91
2018-06-04T10:30:57.337Z,22.85
2018-06-04T10:33:32.078Z,22.88
2018-06-04T10:36:07.265Z,22.88
2018-06-04T10:38:42.345Z,22.91
2018-06-04T10:41:17.719Z,23.06
2018-06-04T10:43:52.314Z,23.31
2018-06-04T10:46:27.699Z,23.59
2018-06-04T10:49:03.438Z,23.79
2018-06-04T10:51:37.988Z,23.88
2018-06-04T10:54:12.956Z,23.93
2018-06-04T10:56:48.337Z,23.89
2018-06-04T10:59:22.910Z,23.83
2018-06-04T11:01:57.806Z,23.89
2018-06-04T11:04:32.709Z,24.04
2018-06-04T11:07:07.340Z,24.20
2018-06-04T11:09:42.303Z,24.33
2018-06-04T11:12:17.286Z,24.39
2018-06-04T11:14:52.421Z,24.38
2018-06-04T11:17:27.165Z,24.39
2018-06-04T11:20:01.593Z,24.31
2018-06-04T11:22:36.305Z,24.24
2018-06-04T11:25:11.403Z,24.31
2018-06-04T11:27:46.197Z,24.45
2018-06-04T11:30:21.856Z,24.60
2018-06-04T11:32:56.573Z,24.81
2018-06-04T11:35:31.510Z,25.05
2018-06-04T11:38:07.063Z,25.31
2018-06-04T11:40:41.926Z,25.53
2018-06-04T11:43:16.414Z,25.74
2018-06-04T11:45:51.574Z,25.86
2018-06-04T11:48:26.274Z,25.97
2018-06-04T11:51:01.507Z,25.99
2018-06-04T11:53:36.567Z,25.96
2018-06-04T11:56:11.705Z,25.93
2018-06-04T11:58:46.446Z,25.94
2018-06-04T12:01:21.388Z,25.90
2018-06-04T12:03:56.357Z,25.88
2018-06-04T12:06:31.569Z,25.96
2018-06-04T12:09:07.782Z,26.05
2018-06-04T12:11:43.210Z,26.20
2018-06-04T12:14:18.156Z,26.32
2018-06-04T12:16:53.040Z,26.42
2018-06-04T12:19:27.837Z,26.38
2018-06-04T12:22:02.465Z,26.31
2018-06-04T12:24:37.682Z,26.24
2018-06-04T12:27:12.609Z,26.14
2018-06-04T12:29:48.079Z,26.21
2018-06-04T12:32:23.530Z,26.27
2018-06-04T12:34:59.257Z,26.31
2018-06-04T12:37:34.197Z,26.23
2018-06-04T12:40:09.542Z,26.06
2018-06-04T12:42:43.844Z,25.98
2018-06-04T12:45:19.001Z,26.13
2018-06-04T12:47:54.077Z,26.36
2018-06-04T12:50:29.256Z,26.66
2018-06-04T12:53:03.581Z,26.98
2018-06-04T12:55:38.402Z,27.11
2018-06-04T12:58:13.653Z,27.08
2018-06-04T13:00:48.887Z,26.75
2018-06-04T13:03:23.612Z,26.50
2018-06-04T13:05:58.749Z,26.46
2018-06-04T13:08:33.442Z,26.64
2018-06-04T13:11:08.034Z,26.86
2018-06-04T13:13:43.090Z,26.90
2018-06-04T13:16:18.178Z,27.00
2018-06-04T13:18:53.549Z,27.14
2018-06-04T13:21:28.423Z,27.22
2018-06-04T13:24:03.203Z,27.07
2018-06-04T13:26:38.004Z,26.81
2018-06-04T13:29:13.312Z,26.71
2018-06-04T13:31:47.913Z,26.75
2018-06-04T13:34:22.509Z,26.92
2018-06-04T13:36:57.266Z,26.98
2018-06-04T13:39:32.247Z,27.03
2018-06-04T13:42:07.542Z,27.17
2018-06-04T13:44:43.022Z,27.35
2018-06-04T13:47:18.522Z,27.58
2018-06-04T13:49:53.359Z,27.80
2018-06-04T13:52:28.597Z,28.08
2018-06-04T13:55:03.599Z,28.31
2018-06-04T13:57:38.498Z,28.36
2018-06-04T14:00:13.501Z,28.26
2018-06-04T14:02:48.786Z,28.12
2018-06-04T14:05:23.918Z,27.93
2018-06-04T14:07:59.168Z,27.89
2018-06-04T14:10:34.212Z,27.93
2018-06-04T14:13:08.989Z,28.01
2018-06-04T14:15:44.118Z,28.10
2018-06-04T14:18:19.073Z,28.33
2018-06-04T14:20:54.409Z,28.52
2018-06-04T14:23:29.222Z,28.66
2018-06-04T14:26:04.662Z,28.77
2018-06-04T14:28:39.164Z,28.77
2018-06-04T14:31:14.121Z,28.63
2018-06-04T14:33:48.865Z,28.45
2018-06-04T14:36:24.045Z,28.28
2018-06-04T14:38:58.422Z,28.10
2018-06-04T14:41:33.286Z,28.04
2018-06-04T14:44:08.465Z,28.17
2018-06-04T14:46:43.592Z,28.35
2018-06-04T14:49:18.672Z,28.62
2018-06-04T14:51:54.078Z,28.79
2018-06-04T14:54:28.721Z,28.84
2018-06-04T14:57:03.751Z,28.64
2018-06-04T14:59:38.157Z,28.27
2018-06-04T15:02:12.985Z,27.91
2018-06-04T15:04:47.169Z,27.64
2018-06-04T15:07:22.273Z,27.43
2018-06-04T15:09:57.876Z,27.41
2018-06-04T15:12:32.745Z,27.35
2018-06-04T15:15:08.273Z,27.31
2018-06-04T15:17:43.342Z,27.28
2018-06-04T15:20:18.369Z,27.28
2018-06-04T15:22:53.545Z,27.22
2018-06-04T15:25:28.424Z,27.22
2018-06-04T15:28:04.026Z,27.39
2018-06-04T15:30:38.887Z,27.53
2018-06-04T15:33:13.877Z,27.49
2018-06-04T15:35:48.905Z,27.41
2018-06-04T15:38:23.968Z,27.33
2018-06-04T15:40:59.260Z,27.24
2018-06-04T15:43:34.150Z,27.05
2018-06-04T15:46:09.585Z,26.93
2018-06-04T15:48:44.189Z,26.90
2018-06-04T15:51:19.297Z,27.01
2018-06-04T15:53:54.498Z,27.05
2018-06-04T15:56:29.569Z,27.01
2018-06-04T15:59:04.340Z,26.97
2018-06-04T16:01:39.797Z,26.86
2018-06-04T16:04:14.773Z,26.77
2018-06-04T16:06:49.165Z,26.77
2018-06-04T16:09:24.581Z,26.76
2018-06-04T16:12:00.058Z,26.66
2018-06-04T16:14:34.595Z,26.56
2018-06-04T16:17:09.669Z,26.47
2018-06-04T16:19:44.521Z,26.46
2018-06-04T16:22:19.253Z,26.42
2018-06-04T16:24:53.433Z,26.37
2018-06-04T16:27:28.808Z,26.37
2018-06-04T16:30:03.712Z,26.38
2018-06-04T16:32:38.920Z,26.30
2018-06-04T16:35:13.665Z,26.29
2018-06-04T16:37:49.399Z,26.34
2018-06-04T16:40:24.921Z,26.35
2018-06-04T16:43:00.078Z,26.29
2018-06-04T16:45:35.221Z,26.13
2018-06-04T16:48:10.201Z,25.92
2018-06-04T16:50:44.717Z,25.81
2018-06-04T16:53:19.876Z,25.81
2018-06-04T16:55:54.149Z,25.81
2018-06-04T16:58:29.216Z,25.82
2018-06-04T17:01:04.181Z,25.76
2018-06-04T17:03:38.959Z,25.69
2018-06-04T17:06:13.702Z,25.61
2018-06-04T17:08:48.931Z,25.49
2018-06-04T17:11:23.654Z,25.45
2018-06-04T17:13:58.277Z,25.45
2018-06-04T17:16:33.281Z,25.44
2018-06-04T17:19:08.576Z,25.39
2018-06-04T17:21:44.200Z,25.25
2018-06-04T17:24:19.185Z,25.10
2018-06-04T17:26:54.334Z,25.01
2018-06-04T17:29:29.620Z,24.89
2018-06-04T17:32:04.634Z,24.81
2018-06-04T17:34:39.732Z,24.66
2018-06-04T17:37:14.430Z,24.52
2018-06-04T17:39:49.010Z,24.40
2018-06-04T17:42:24.461Z,24.28
2018-06-04T17:44:58.986Z,24.12
2018-06-04T17:47:34.574Z,23.90
2018-06-04T17:50:09.066Z,23.74
2018-06-04T17:52:44.034Z,23.61
2018-06-04T17:55:19.519Z,23.52
2018-06-04T17:57:54.589Z,23.46
2018-06-04T18:00:29.383Z,23.38
2018-06-04T18:03:04.584Z,23.28
2018-06-04T18:05:39.536Z,23.15
2018-06-04T18:08:14.389Z,23.05
2018-06-04T18:10:49.053Z,22.95
2018-06-04T18:13:24.273Z,22.87
2018-06-04T18:15:58.989Z,22.80
2018-06-04T18:18:33.821Z,22.76
2018-06-04T18:21:08.810Z,22.74
2018-06-04T18:23:43.810Z,22.66
2018-06-04T18:26:19.123Z,22.60
2018-06-04T18:28:54.173Z,22.55
2018-06-04T18:31:29.410Z,22.46
2018-06-04T18:34:04.807Z,22.33
2018-06-04T18:36:40.001Z,22.27
2018-06-04T18:39:14.773Z,22.21
2018-06-04T18:41:49.977Z,22.15
2018-06-04T18:44:25.205Z,22.11
2018-06-04T18:47:00.269Z,22.09
2018-06-04T18:49:34.994Z,22.08
2018-06-04T18:52:10.088Z,22.09
2018-06-04T18:54:45.585Z,22.04
2018-06-04T18:57:20.181Z,21.95
2018-06-04T18:59:54.813Z,21.87
2018-06-04T19:02:31.117Z,21.85
2018-06-04T19:05:06.033Z,21.83
2018-06-04T19:07:40.948Z,21.79
2018-06-04T19:10:15.448Z,21.78
2018-06-04T19:12:50.929Z,21.72
2018-06-04T19:15:25.832Z,21.60
2018-06-04T19:18:00.781Z,21.48
2018-06-04T19:20:35.474Z,21.38
2018-06-04T19:23:10.203Z,21.33
2018-06-04T19:25:45.558Z,21.30
2018-06-04T19:28:20.456Z,21.27
2018-06-04T19:30:55.140Z,21.19
2018-06-04T19:33:30.570Z,21.13
2018-06-04T19:36:05.918Z,21.10
2018-06-04T19:38:40.745Z,21.04
2018-06-04T19:41:16.037Z,20.94
2018-06-04T19:43:51.466Z,20.88
2018-06-04T19:46:26.312Z,20.81
2018-06-04T19:49:01.782Z,20.80
2018-06-04T19:51:36.458Z,20.92
2018-06-04T19:54:11.572Z,21.05
2018-06-04T19:56:47.250Z,21.21
2018-06-04T19:59:22.202Z,21.45
2018-06-04T20:01:57.073Z,21.60
2018-06-04T20:04:32.222Z,21.57
2018-06-04T20:07:07.365Z,21.49
2018-06-04T20:09:42.657Z,21.37
2018-06-04T20:12:18.021Z,21.38
2018-06-04T20:14:52.778Z,21.43
2018-06-04T20:17:27.761Z,21.44
2018-06-04T20:20:03.673Z,21.41
2018-06-04T20:22:38.368Z,21.44
2018-06-04T20:25:13.350Z,21.46
2018-06-04T20:27:48.714Z,21.47
2018-06-04T20:30:23.174Z,21.40
2018-06-04T20:32:57.901Z,21.25
2018-06-04T20:35:33.117Z,21.20
2018-06-04T20:38:08.158Z,21.20
2018-06-04T20:40:43.187Z,21.21
2018-06-04T20:43:17.803Z,21.13
2018-06-04T20:45:52.685Z,21.01
2018-06-04T20:48:27.689Z,20.89
2018-06-04T20:51:02.783Z,20.76
2018-06-04T20:53:38.024Z,20.71
2018-06-04T20:56:13.187Z,20.69
2018-06-04T20:58:47.542Z,20.69
2018-06-04T21:01:22.461Z,20.69
2018-06-04T21:03:57.413Z,20.72
2018-06-04T21:06:32.044Z,20.74
2018-06-04T21:09:07.337Z,20.67
2018-06-04T21:11:42.110Z,20.58
2018-06-04T21:14:17.200Z,20.56
2018-06-04T21:16:51.718Z,20.56
2018-06-04T21:19:26.295Z,20.59
2018-06-04T21:22:01.377Z,20.63
2018-06-04T21:24:36.829Z,20.63
2018-06-04T21:27:11.770Z,20.57
2018-06-04T21:29:46.570Z,20.53
2018-06-04T21:32:21.830Z,20.45
2018-06-04T21:34:57.449Z,20.38
2018-06-04T21:37:31.810Z,20.31
2018-06-04T21:40:06.945Z,20.28
2018-06-04T21:42:41.935Z,20.30
2018-06-04T21:45:16.788Z,20.23
2018-06-04T21:47:51.420Z,20.11
2018-06-04T21:50:26.280Z,20.01
2018-06-04T21:53:01.510Z,19.93
2018-06-04T21:55:36.118Z,19.86
2018-06-04T21:58:11.141Z,19.81
2018-06-04T22:00:46.010Z,19.76
2018-06-04T22:03:21.202Z,19.72
2018-06-04T22:05:56.662Z,19.65
2018-06-04T22:08:31.800Z,19.60
2018-06-04T22:11:06.884Z,19.58
2018-06-04T22:13:41.757Z,19.59
2018-06-04T22:16:17.109Z,19.57
2018-06-04T22:21:39.959Z,19.55
2018-06-04T22:24:15.232Z,19.47
2018-06-04T22:26:50.021Z,19.41
2018-06-04T22:29:42.240Z,19.36
2018-06-04T22:32:17.789Z,19.34
2018-06-04T22:34:53.847Z,19.30
2018-06-04T22:37:29.808Z,19.28
2018-06-04T22:40:05.580Z,19.27
2018-06-04T22:42:40.921Z,19.28
2018-06-04T22:45:16.391Z,19.27
2018-06-04T22:47:51.000Z,19.23
2018-06-04T22:50:25.626Z,19.23
2018-06-04T22:53:00.058Z,19.23
2018-06-04T22:55:35.115Z,19.18
2018-06-04T22:58:10.153Z,19.14
2018-06-04T23:00:44.948Z,19.10
2018-06-04T23:03:19.729Z,19.09
2018-06-04T23:05:54.226Z,19.09
2018-06-04T23:08:29.943Z,19.09
2018-06-04T23:11:04.996Z,19.09
2018-06-04T23:13:39.506Z,19.09
2018-06-04T23:16:14.962Z,19.08
2018-06-04T23:18:49.884Z,19.09
2018-06-04T23:21:24.852Z,19.07
2018-06-04T23:23:59.674Z,19.02
2018-06-04T23:26:34.702Z,19.01
2018-06-04T23:29:09.997Z,19.02
2018-06-04T23:31:45.100Z,19.01
2018-06-04T23:34:20.124Z,19.02
2018-06-04T23:36:55.045Z,19.03
2018-06-04T23:39:29.867Z,19.05
2018-06-04T23:42:04.923Z,19.00
2018-06-04T23:44:39.915Z,18.98
2018-06-04T23:47:14.717Z,18.90
2018-06-04T23:49:49.371Z,18.79
2018-06-04T23:52:24.456Z,18.76
2018-06-04T23:54:59.489Z,18.72
2018-06-04T23:57:35.285Z,18.69
